JAL4980 RJFK-RJFK

Flight info

Callsign JAL4980
Flight time 0h 44m
Altitude 5000
Route R/V
Aircraft B763/H-V/N

Departure

Time 2026-04-30 13:23
Airport Kagoshima Airport (RJFK)

Arrival

Time 2026-04-30 14:07
Airport Kagoshima Airport (RJFK)
Time Latitude Longitude Altitude Speed Heading
2026-04-30 13:01 31.80324 130.71550 897 ft 0 kts 240°
2026-04-30 13:14 31.80336 130.71574 897 ft 2 kts 240°
2026-04-30 13:15 31.80344 130.71588 896 ft 2 kts 240°
2026-04-30 13:15 31.80363 130.71622 895 ft 2 kts 197°
2026-04-30 13:15 31.80378 130.71625 896 ft 2 kts 178°
2026-04-30 13:16 31.80392 130.71622 896 ft 2 kts 158°
2026-04-30 13:16 31.80401 130.71617 897 ft 2 kts 147°
2026-04-30 13:16 31.80418 130.71605 897 ft 2 kts 151°
2026-04-30 13:17 31.80423 130.71602 897 ft 0 kts 152°
2026-04-30 13:18 31.80420 130.71603 897 ft 1 kts 150°
2026-04-30 13:18 31.80411 130.71620 897 ft 4 kts 106°
2026-04-30 13:19 31.80379 130.71675 896 ft 11 kts 136°
2026-04-30 13:19 31.80305 130.71738 896 ft 15 kts 148°
2026-04-30 13:19 31.80203 130.71808 896 ft 18 kts 150°
2026-04-30 13:19 31.80073 130.71896 893 ft 24 kts 149°
2026-04-30 13:20 31.79938 130.71989 890 ft 24 kts 148°
2026-04-30 13:20 31.79535 130.72258 877 ft 18 kts 148°
2026-04-30 13:21 31.79453 130.72316 873 ft 19 kts 151°
2026-04-30 13:21 31.79322 130.72400 869 ft 21 kts 151°
2026-04-30 13:21 31.79155 130.72516 863 ft 15 kts 144°
2026-04-30 13:22 31.79157 130.72679 860 ft 10 kts 50°
2026-04-30 13:22 31.79203 130.72700 860 ft 11 kts 357°
2026-04-30 13:22 31.79878 130.72252 883 ft 146 kts 332°
2026-04-30 13:23 31.80995 130.71558 1599 ft 212 kts 335°
2026-04-30 13:23 31.84728 130.69142 2906 ft 271 kts 333°
2026-04-30 13:24 31.87094 130.67531 3430 ft 200 kts 333°
2026-04-30 13:24 31.89331 130.65977 3416 ft 171 kts 333°
2026-04-30 13:25 31.89988 130.63493 3658 ft 165 kts 229°
2026-04-30 13:25 31.88410 130.62059 3925 ft 171 kts 212°
2026-04-30 13:26 31.85423 130.59795 4640 ft 184 kts 213°
2026-04-30 13:26 31.82868 130.57951 4842 ft 184 kts 210°
2026-04-30 13:27 31.80424 130.58043 4923 ft 186 kts 163°
2026-04-30 13:28 31.77155 130.59412 4856 ft 189 kts 163°
2026-04-30 13:28 31.74163 130.60657 4847 ft 194 kts 163°
2026-04-30 13:28 31.72885 130.61189 4862 ft 195 kts 162°
2026-04-30 13:29 31.70735 130.62093 4877 ft 198 kts 162°
2026-04-30 13:29 31.67754 130.63348 4851 ft 194 kts 162°
2026-04-30 13:30 31.63925 130.64931 4852 ft 195 kts 161°
2026-04-30 13:31 31.62224 130.66740 4862 ft 203 kts 132°
2026-04-30 13:31 31.59542 130.70627 4848 ft 203 kts 134°
2026-04-30 13:32 31.57818 130.73200 4838 ft 192 kts 132°
2026-04-30 13:32 31.56283 130.75679 4836 ft 194 kts 106°
2026-04-30 13:33 31.57015 130.78589 4760 ft 196 kts 62°
2026-04-30 13:33 31.58613 130.81844 4164 ft 200 kts 45°
2026-04-30 13:34 31.59410 130.82393 3975 ft 201 kts 18°
2026-04-30 13:34 31.63557 130.82513 3781 ft 165 kts
2026-04-30 13:35 31.64313 130.82475 3671 ft 165 kts 354°
2026-04-30 13:35 31.66716 130.81061 3343 ft 165 kts 335°
2026-04-30 13:36 31.68635 130.79791 3210 ft 158 kts 336°
2026-04-30 13:36 31.69286 130.79359 3086 ft 163 kts 335°
2026-04-30 13:36 31.71459 130.77902 2564 ft 146 kts 334°
2026-04-30 13:37 31.72339 130.77312 2372 ft 147 kts 334°
2026-04-30 13:37 31.73853 130.76297 2078 ft 153 kts 334°
2026-04-30 13:38 31.76008 130.74850 1604 ft 153 kts 333°
2026-04-30 13:38 31.76618 130.74438 1471 ft 152 kts 333°
2026-04-30 13:38 31.78772 130.73000 979 ft 149 kts 332°
2026-04-30 13:39 31.80457 130.71867 904 ft 159 kts 331°
2026-04-30 13:39 31.82105 130.70638 1463 ft 180 kts 327°
2026-04-30 13:40 31.83575 130.69446 1793 ft 204 kts 316°
2026-04-30 13:40 31.84105 130.68582 2315 ft 194 kts 295°
2026-04-30 13:40 31.84689 130.66721 3137 ft 180 kts 290°
2026-04-30 13:40 31.84819 130.65695 3141 ft 198 kts 263°
2026-04-30 13:41 31.84467 130.64168 3768 ft 193 kts 252°
2026-04-30 13:41 31.83903 130.62193 4612 ft 188 kts 252°
2026-04-30 13:41 31.83543 130.61285 4935 ft 188 kts 233°
2026-04-30 13:41 31.82476 130.60370 5007 ft 197 kts 199°
2026-04-30 13:42 31.81156 130.60020 4973 ft 192 kts 192°
2026-04-30 13:42 31.80289 130.59831 4963 ft 188 kts 193°
2026-04-30 13:42 31.77115 130.59152 5009 ft 219 kts 192°
2026-04-30 13:43 31.75612 130.58820 4976 ft 217 kts 193°
2026-04-30 13:43 31.74149 130.58495 4972 ft 212 kts 193°
2026-04-30 13:43 31.72676 130.58324 4982 ft 215 kts 174°
2026-04-30 13:43 31.71310 130.59032 5016 ft 218 kts 146°
2026-04-30 13:44 31.70155 130.60175 4974 ft 211 kts 142°
2026-04-30 13:44 31.68730 130.61647 4973 ft 200 kts 143°
2026-04-30 13:44 31.68044 130.62367 4972 ft 198 kts 142°
2026-04-30 13:44 31.67005 130.63458 4984 ft 201 kts 142°
2026-04-30 13:45 31.64897 130.65584 4990 ft 196 kts 142°
2026-04-30 13:45 31.63500 130.66968 5058 ft 197 kts 143°
2026-04-30 13:45 31.62479 130.68034 4983 ft 194 kts 143°
2026-04-30 13:46 31.61812 130.68749 4978 ft 189 kts 142°
2026-04-30 13:46 31.60892 130.69739 4966 ft 181 kts 143°
2026-04-30 13:46 31.60008 130.70715 4968 ft 173 kts 142°
2026-04-30 13:46 31.59124 130.71692 4980 ft 172 kts 142°
2026-04-30 13:47 31.57948 130.72977 4988 ft 176 kts 143°
2026-04-30 13:47 31.57398 130.73680 4972 ft 178 kts 126°
2026-04-30 13:47 31.57280 130.75629 4909 ft 197 kts 70°
2026-04-30 13:47 31.57912 130.77034 4819 ft 196 kts 62°
2026-04-30 13:48 31.58361 130.77953 4730 ft 194 kts 63°
2026-04-30 13:48 31.59033 130.79340 4543 ft 194 kts 63°
2026-04-30 13:48 31.59696 130.80704 4308 ft 195 kts 63°
2026-04-30 13:48 31.60409 130.82036 4112 ft 194 kts 51°
2026-04-30 13:49 31.61567 130.82837 3852 ft 195 kts 13°
2026-04-30 13:49 31.62892 130.82916 3701 ft 189 kts
2026-04-30 13:49 31.64189 130.82695 3488 ft 189 kts 338°
2026-04-30 13:49 31.65327 130.81970 3342 ft 185 kts 332°
2026-04-30 13:50 31.66448 130.81236 3268 ft 179 kts 333°
2026-04-30 13:50 31.68532 130.79862 3246 ft 170 kts 333°
2026-04-30 13:50 31.69565 130.79173 3005 ft 168 kts 333°
2026-04-30 13:51 31.70553 130.78513 2804 ft 161 kts 333°
2026-04-30 13:51 31.71498 130.77878 2608 ft 153 kts 334°
2026-04-30 13:51 31.72743 130.77043 2328 ft 154 kts 334°
2026-04-30 13:51 31.73361 130.76630 2191 ft 154 kts 334°
2026-04-30 13:52 31.74279 130.75998 1973 ft 150 kts 332°
2026-04-30 13:52 31.75491 130.75148 1711 ft 152 kts 336°
2026-04-30 13:52 31.76115 130.74805 1584 ft 148 kts 339°
2026-04-30 13:52 31.76998 130.74236 1414 ft 154 kts 331°
2026-04-30 13:53 31.78128 130.73434 1156 ft 153 kts 333°
2026-04-30 13:53 31.79029 130.72824 938 ft 146 kts 332°
2026-04-30 13:53 31.79604 130.72438 872 ft 141 kts 332°
2026-04-30 13:53 31.80429 130.71874 897 ft 150 kts 333°
2026-04-30 13:54 31.81691 130.70944 1918 ft 162 kts 323°
2026-04-30 13:54 31.82191 130.70222 2181 ft 190 kts 298°
2026-04-30 13:54 31.82395 130.68678 2208 ft 191 kts 258°
2026-04-30 13:54 31.82064 130.67267 2539 ft 178 kts 253°
2026-04-30 13:55 31.81674 130.65801 3002 ft 195 kts 253°
2026-04-30 13:55 31.81259 130.64282 3392 ft 197 kts 253°
2026-04-30 13:55 31.80564 130.62950 3791 ft 190 kts 217°
2026-04-30 13:55 31.79771 130.62489 4102 ft 195 kts 197°
2026-04-30 13:56 31.78005 130.62042 4663 ft 194 kts 192°
2026-04-30 13:56 31.76233 130.61642 5007 ft 198 kts 193°
2026-04-30 13:56 31.75331 130.61438 4996 ft 198 kts 193°
2026-04-30 13:56 31.74005 130.61139 4981 ft 191 kts 192°
2026-04-30 13:57 31.72287 130.61435 5015 ft 195 kts 155°
2026-04-30 13:57 31.71485 130.61963 5009 ft 201 kts 153°
2026-04-30 13:57 31.69856 130.63084 4996 ft 204 kts 153°
2026-04-30 13:57 31.69031 130.63654 4999 ft 209 kts 153°
2026-04-30 13:58 31.67777 130.64514 4991 ft 209 kts 153°
2026-04-30 13:58 31.65284 130.66188 4989 ft 203 kts 153°
2026-04-30 13:58 31.64047 130.67013 4978 ft 201 kts 154°
2026-04-30 13:59 31.62828 130.67870 4999 ft 208 kts 154°
2026-04-30 13:59 31.61610 130.68758 4991 ft 204 kts 153°
2026-04-30 13:59 31.60420 130.69636 5030 ft 199 kts 152°
2026-04-30 13:59 31.59251 130.70502 4987 ft 196 kts 153°
2026-04-30 14:00 31.58131 130.71330 4979 ft 187 kts 153°
2026-04-30 14:00 31.56991 130.73833 5006 ft 194 kts 80°
2026-04-30 14:00 31.57549 130.75304 5008 ft 197 kts 62°
2026-04-30 14:01 31.58203 130.76691 5017 ft 190 kts 62°
2026-04-30 14:01 31.58843 130.78030 4914 ft 190 kts 62°
2026-04-30 14:01 31.59496 130.79401 4664 ft 193 kts 63°
2026-04-30 14:01 31.60172 130.80771 4416 ft 195 kts 62°
2026-04-30 14:02 31.60857 130.82127 4176 ft 193 kts 58°
2026-04-30 14:02 31.61901 130.83092 3966 ft 192 kts 20°
2026-04-30 14:02 31.63174 130.83220 3988 ft 182 kts 357°
2026-04-30 14:02 31.64357 130.82716 3993 ft 179 kts 328°
2026-04-30 14:03 31.65407 130.81959 3887 ft 178 kts 329°
2026-04-30 14:03 31.66819 130.81014 3569 ft 171 kts 330°
2026-04-30 14:03 31.67843 130.80333 3342 ft 166 kts 331°
2026-04-30 14:03 31.68827 130.79668 3131 ft 161 kts 334°
2026-04-30 14:04 31.69787 130.79025 2917 ft 157 kts 334°
2026-04-30 14:04 31.70412 130.78607 2787 ft 154 kts 334°
2026-04-30 14:04 31.71348 130.77980 2610 ft 152 kts 333°
2026-04-30 14:04 31.72258 130.77367 2453 ft 153 kts 334°
2026-04-30 14:05 31.73197 130.76739 2244 ft 155 kts 334°
2026-04-30 14:05 31.74125 130.76115 2017 ft 152 kts 333°
2026-04-30 14:05 31.75029 130.75507 1799 ft 147 kts 333°
2026-04-30 14:05 31.76218 130.74712 1555 ft 147 kts 333°
2026-04-30 14:06 31.76810 130.74312 1428 ft 148 kts 333°
2026-04-30 14:06 31.78894 130.72911 965 ft 146 kts 332°
2026-04-30 14:07 31.80136 130.72080 889 ft 78 kts 333°
2026-04-30 14:07 31.80545 130.71805 895 ft 55 kts 329°
2026-04-30 14:07 31.80786 130.71600 896 ft 35 kts 311°
2026-04-30 14:08 31.80828 130.71422 900 ft 7 kts 218°
2026-04-30 14:08 31.80766 130.71428 900 ft 11 kts 153°
2026-04-30 14:08 31.80542 130.71578 897 ft 8 kts 152°
2026-04-30 14:09 31.80497 130.71606 896 ft 12 kts 150°
2026-04-30 14:09 31.80403 130.71670 895 ft 18 kts 149°
2026-04-30 14:09 31.80260 130.71716 895 ft 6 kts 230°
2026-04-30 14:10 31.80240 130.71680 895 ft 9 kts 242°
2026-04-30 14:10 31.80221 130.71642 896 ft 6 kts 240°
2026-04-30 14:10 31.80213 130.71625 896 ft 0 kts 242°